createdAt,value
2022-09-20T00:01:21.723Z,4.15
2022-09-20T00:03:51.631Z,4.00
2022-09-20T00:06:21.773Z,4.65
2022-09-20T00:08:49.366Z,4.30
2022-09-20T00:11:23.395Z,3.47
2022-09-20T00:13:52.521Z,3.55
2022-09-20T00:16:22.860Z,3.22
2022-09-20T00:18:51.059Z,3.08
2022-09-20T00:21:19.695Z,3.30
2022-09-20T00:23:46.560Z,3.70
2022-09-20T00:26:16.604Z,3.80
2022-09-20T00:28:44.110Z,3.40
2022-09-20T00:31:12.148Z,3.10
2022-09-20T00:33:58.328Z,3.15
2022-09-20T00:36:27.283Z,3.00
2022-09-20T00:38:58.529Z,3.15
2022-09-20T00:41:25.851Z,3.08
2022-09-20T00:43:53.071Z,3.00
2022-09-20T00:46:34.977Z,2.70
2022-09-20T00:49:16.816Z,3.15
2022-09-20T00:51:55.354Z,2.88
2022-09-20T00:54:25.555Z,2.78
2022-09-20T00:56:52.652Z,2.75
2022-09-20T00:59:34.294Z,2.78
2022-09-20T01:04:43.205Z,2.70
2022-09-20T01:07:13.809Z,2.50
2022-09-20T01:09:40.776Z,2.70
2022-09-20T01:12:13.674Z,2.63
2022-09-20T01:14:42.715Z,2.50
2022-09-20T01:17:10.884Z,2.60
2022-09-20T01:20:00.084Z,2.83
2022-09-20T01:22:52.465Z,2.78
2022-09-20T01:25:54.103Z,2.80
2022-09-20T01:28:21.642Z,2.58
2022-09-20T01:31:05.035Z,2.97
2022-09-20T01:33:43.234Z,2.42
2022-09-20T01:36:14.215Z,2.75
2022-09-20T01:38:59.456Z,2.67
2022-09-20T01:41:38.673Z,2.80
2022-09-20T01:44:30.943Z,3.03
2022-09-20T01:47:11.176Z,3.42
2022-09-20T01:50:14.684Z,2.80
2022-09-20T01:52:41.437Z,2.60
2022-09-20T01:55:31.332Z,2.70
2022-09-20T01:58:32.993Z,2.63
2022-09-20T02:01:14.863Z,2.70
2022-09-20T02:04:01.678Z,3.00
2022-09-20T02:06:43.490Z,2.90
2022-09-20T02:12:10.232Z,2.55
2022-09-20T02:14:37.182Z,2.72
2022-09-20T02:17:21.415Z,2.60
2022-09-20T02:20:03.253Z,4.60
2022-09-20T02:25:23.176Z,2.50
2022-09-20T02:28:11.897Z,2.67
2022-09-20T02:31:12.238Z,3.05
2022-09-20T02:34:20.843Z,2.97
2022-09-20T02:36:58.194Z,2.85
2022-09-20T02:40:03.308Z,2.83
2022-09-20T02:42:44.762Z,2.70
2022-09-20T02:45:22.199Z,2.60
2022-09-20T02:47:49.292Z,3.00
2022-09-20T02:50:39.984Z,2.60
2022-09-20T02:53:19.029Z,2.42
2022-09-20T02:56:00.603Z,2.60
2022-09-20T02:59:03.632Z,2.80
2022-09-20T03:01:55.579Z,2.53
2022-09-20T03:04:43.220Z,2.72
2022-09-20T03:07:23.187Z,2.63
2022-09-20T03:10:01.825Z,2.70
2022-09-20T03:13:02.447Z,2.58
2022-09-20T03:15:29.269Z,2.60
2022-09-20T03:18:18.354Z,2.47
2022-09-20T03:21:09.582Z,3.20
2022-09-20T03:24:01.074Z,2.67
2022-09-20T03:26:49.617Z,3.42
2022-09-20T03:29:26.606Z,2.88
2022-09-20T03:32:15.536Z,2.83
2022-09-20T03:34:52.228Z,3.00
2022-09-20T03:37:40.234Z,3.13
2022-09-20T03:40:46.624Z,3.15
2022-09-20T03:44:05.733Z,3.22
2022-09-20T03:46:44.564Z,3.50
2022-09-20T03:49:23.429Z,3.25
2022-09-20T03:51:59.724Z,3.10
2022-09-20T03:54:57.504Z,3.40
2022-09-20T03:58:08.733Z,2.90
2022-09-20T04:00:48.658Z,3.50
2022-09-20T04:03:21.282Z,3.40
2022-09-20T04:06:13.923Z,3.40
2022-09-20T04:09:15.071Z,3.75
2022-09-20T04:12:14.263Z,4.50
2022-09-20T04:15:18.767Z,3.50
2022-09-20T04:18:09.558Z,3.70
2022-09-20T04:20:56.929Z,3.80
2022-09-20T04:24:00.881Z,3.67
2022-09-20T04:26:35.082Z,4.05
2022-09-20T04:29:26.591Z,6.25
2022-09-20T04:32:39.609Z,4.93
2022-09-20T04:35:52.515Z,5.00
2022-09-20T04:38:21.204Z,5.38
2022-09-20T04:41:12.941Z,5.70
2022-09-20T04:43:53.702Z,5.63
2022-09-20T04:46:32.719Z,5.75
2022-09-20T04:49:34.792Z,5.60
2022-09-20T04:55:08.944Z,5.07
2022-09-20T04:58:05.909Z,5.68
2022-09-20T05:01:06.924Z,5.07
2022-09-20T05:03:36.748Z,5.40
2022-09-20T05:06:31.956Z,5.78
2022-09-20T05:09:30.981Z,5.18
2022-09-20T05:12:06.171Z,5.30
2022-09-20T05:14:46.529Z,5.47
2022-09-20T05:17:41.585Z,5.40
2022-09-20T05:20:46.489Z,6.82
2022-09-20T05:23:43.639Z,5.45
2022-09-20T05:26:13.298Z,5.93
2022-09-20T05:29:01.932Z,6.32
2022-09-20T05:31:38.952Z,4.90
2022-09-20T05:34:31.735Z,5.00
2022-09-20T05:37:34.791Z,5.20
2022-09-20T05:40:19.830Z,5.00
2022-09-20T05:43:02.820Z,6.47
2022-09-20T05:46:06.512Z,5.57
2022-09-20T05:48:53.369Z,6.25
2022-09-20T05:51:42.218Z,6.53
2022-09-20T05:54:43.614Z,5.90
2022-09-20T05:57:52.194Z,6.45
2022-09-20T06:00:21.651Z,15.98
2022-09-20T06:03:04.442Z,9.18
2022-09-20T06:05:50.852Z,3.55
2022-09-20T06:08:23.414Z,3.05
2022-09-20T06:11:00.239Z,2.80
2022-09-20T06:14:16.000Z,3.17
2022-09-20T06:16:50.969Z,2.83
2022-09-20T06:19:41.533Z,3.55
2022-09-20T06:22:26.076Z,2.28
2022-09-20T06:25:01.117Z,4.22
2022-09-20T06:27:55.286Z,3.97
2022-09-20T06:30:28.078Z,4.25
2022-09-20T06:32:57.950Z,4.20
2022-09-20T06:35:31.651Z,4.25
2022-09-20T06:38:42.323Z,3.70
2022-09-20T06:41:29.948Z,4.40
2022-09-20T06:44:01.356Z,6.93
2022-09-20T06:46:31.585Z,8.75
2022-09-20T06:48:58.925Z,9.63
2022-09-20T06:51:28.832Z,9.13
2022-09-20T06:53:57.253Z,8.68
2022-09-20T06:56:27.065Z,8.63
2022-09-20T06:58:54.288Z,8.82
2022-09-20T07:01:29.725Z,9.95
2022-09-20T07:03:57.893Z,9.20
2022-09-20T07:06:24.808Z,8.27
2022-09-20T07:08:51.624Z,8.60
2022-09-20T07:11:18.603Z,8.30
2022-09-20T07:13:50.055Z,8.52
2022-09-20T07:16:17.097Z,7.38
2022-09-20T07:18:44.173Z,7.25
2022-09-20T07:21:16.712Z,7.57
2022-09-20T07:23:45.882Z,7.32
2022-09-20T07:26:22.317Z,7.97
2022-09-20T07:28:49.948Z,7.10
2022-09-20T07:31:22.958Z,6.60
2022-09-20T07:33:50.192Z,6.72
2022-09-20T07:36:17.304Z,6.78
2022-09-20T07:38:48.855Z,7.50
2022-09-20T07:43:43.865Z,7.10
2022-09-20T07:46:13.704Z,7.97
2022-09-20T07:48:41.341Z,6.90
2022-09-20T07:51:12.815Z,7.20
2022-09-20T07:53:40.677Z,6.47
2022-09-20T07:56:12.519Z,5.88
2022-09-20T07:58:39.843Z,5.47
2022-09-20T08:01:09.837Z,5.20
2022-09-20T08:03:37.895Z,4.93
2022-09-20T08:06:14.522Z,5.68
2022-09-20T08:08:41.512Z,4.95
2022-09-20T08:11:18.076Z,5.72
2022-09-20T08:16:48.352Z,5.03
2022-09-20T08:19:21.690Z,5.00
2022-09-20T08:21:50.108Z,4.65
2022-09-20T08:24:17.403Z,4.40
2022-09-20T08:26:44.573Z,4.93
2022-09-20T08:29:11.696Z,4.40
2022-09-20T08:31:40.392Z,4.38
2022-09-20T08:34:10.027Z,5.05
2022-09-20T08:36:41.385Z,4.20
2022-09-20T08:42:14.615Z,2.70
2022-09-20T08:45:00.547Z,3.70
2022-09-20T08:47:31.604Z,2.30
2022-09-20T08:50:00.910Z,2.65
2022-09-20T08:52:40.114Z,2.63
2022-09-20T08:55:19.994Z,2.30
2022-09-20T08:57:53.058Z,2.10
2022-09-20T09:00:32.733Z,1.55
2022-09-20T09:03:05.714Z,2.10
2022-09-20T09:05:34.310Z,2.72
2022-09-20T09:08:07.623Z,2.58
2022-09-20T09:10:45.883Z,3.95
2022-09-20T09:13:28.378Z,3.22
2022-09-20T09:15:59.913Z,3.70
2022-09-20T09:20:59.457Z,3.30
2022-09-20T09:23:27.742Z,3.80
2022-09-20T09:25:55.299Z,3.67
2022-09-20T09:28:29.378Z,4.15
2022-09-20T09:31:23.166Z,5.85
2022-09-20T09:33:50.070Z,8.23
2022-09-20T09:36:27.081Z,6.43
2022-09-20T09:39:16.484Z,6.70
2022-09-20T09:41:44.470Z,5.60
2022-09-20T09:44:22.067Z,5.22
2022-09-20T09:46:50.472Z,5.20
2022-09-20T09:49:21.899Z,4.00
2022-09-20T09:54:36.634Z,3.22
2022-09-20T09:57:32.000Z,2.47
2022-09-20T10:00:20.438Z,2.42
2022-09-20T10:03:20.980Z,2.50
2022-09-20T10:06:04.612Z,2.50
2022-09-20T10:09:04.564Z,1.98
2022-09-20T10:11:40.550Z,2.13
2022-09-20T10:14:29.639Z,1.85
2022-09-20T10:17:08.343Z,1.70
2022-09-20T10:20:20.573Z,2.00
2022-09-20T10:23:34.513Z,2.60
2022-09-20T10:26:31.840Z,2.25
2022-09-20T10:29:17.583Z,3.03
2022-09-20T10:32:26.221Z,2.08
2022-09-20T10:35:11.796Z,7.80
2022-09-20T10:37:55.947Z,3.25
2022-09-20T10:40:59.511Z,2.55
2022-09-20T10:43:35.193Z,2.20
2022-09-20T10:46:34.993Z,2.40
2022-09-20T10:49:23.745Z,2.88
2022-09-20T10:52:02.801Z,8.63
2022-09-20T10:54:55.985Z,3.17
2022-09-20T10:57:37.666Z,3.03
2022-09-20T11:00:42.317Z,2.30
2022-09-20T11:03:42.461Z,2.20
2022-09-20T11:06:21.463Z,2.58
2022-09-20T11:08:54.347Z,2.20
2022-09-20T11:11:34.943Z,2.05
2022-09-20T11:14:13.245Z,2.40
2022-09-20T11:16:51.136Z,2.15
2022-09-20T11:19:35.073Z,3.38
2022-09-20T11:22:24.054Z,2.60
2022-09-20T11:24:50.929Z,2.33
2022-09-20T11:27:25.654Z,2.70
2022-09-20T11:30:02.054Z,2.33
2022-09-20T11:32:36.689Z,2.20
2022-09-20T11:35:10.729Z,2.42
2022-09-20T11:37:57.619Z,2.72
2022-09-20T11:40:32.957Z,2.60
2022-09-20T11:43:03.981Z,2.60
2022-09-20T11:45:31.718Z,2.75
2022-09-20T11:48:13.365Z,3.33
2022-09-20T11:53:19.454Z,2.92
2022-09-20T11:56:02.073Z,2.90
2022-09-20T11:58:29.010Z,3.20
2022-09-20T12:00:59.120Z,2.88
2022-09-20T12:03:32.934Z,2.90
2022-09-20T12:06:02.984Z,2.80
2022-09-20T12:08:35.435Z,3.13
2022-09-20T12:11:06.142Z,2.97
2022-09-20T12:13:36.842Z,3.17
2022-09-20T12:16:17.528Z,2.77
2022-09-20T12:18:47.498Z,3.13
2022-09-20T12:21:17.268Z,3.85
2022-09-20T12:23:44.860Z,3.80
2022-09-20T12:26:20.359Z,3.92
2022-09-20T12:28:51.407Z,3.97
2022-09-20T12:31:33.598Z,2.88
2022-09-20T12:34:10.159Z,2.60
2022-09-20T12:36:46.604Z,2.60
2022-09-20T12:39:17.656Z,4.10
2022-09-20T12:41:54.062Z,3.40
2022-09-20T12:44:36.868Z,3.28
2022-09-20T12:47:09.970Z,2.35
2022-09-20T12:49:58.690Z,2.58
2022-09-20T12:53:02.327Z,2.30
2022-09-20T12:56:04.583Z,2.45
2022-09-20T12:58:53.653Z,2.15
2022-09-20T13:01:23.472Z,2.00
2022-09-20T13:03:51.198Z,2.95
2022-09-20T13:06:19.224Z,2.80
2022-09-20T13:09:06.208Z,2.40
2022-09-20T13:11:49.185Z,2.67
2022-09-20T13:14:23.869Z,2.17
2022-09-20T13:16:56.497Z,2.22
2022-09-20T13:19:41.222Z,2.22
2022-09-20T13:22:30.347Z,2.50
2022-09-20T13:25:03.010Z,2.15
2022-09-20T13:27:39.769Z,2.30
2022-09-20T13:30:23.271Z,2.22
2022-09-20T13:32:51.533Z,2.28
2022-09-20T13:35:32.360Z,2.10
2022-09-20T13:38:09.932Z,2.40
2022-09-20T13:40:42.804Z,2.15
2022-09-20T13:43:32.908Z,2.40
2022-09-20T13:46:07.832Z,2.00
2022-09-20T13:48:35.582Z,2.35
2022-09-20T13:51:02.667Z,2.30
2022-09-20T13:53:41.634Z,1.90
2022-09-20T13:56:28.793Z,2.00
2022-09-20T13:58:59.054Z,1.75
2022-09-20T14:01:32.393Z,1.95
2022-09-20T14:04:14.578Z,2.20
2022-09-20T14:06:42.502Z,2.40
2022-09-20T14:09:36.917Z,2.10
2022-09-20T14:12:05.664Z,1.90
2022-09-20T14:14:34.590Z,2.08
2022-09-20T14:17:05.177Z,1.90
2022-09-20T14:19:40.879Z,2.00
2022-09-20T14:22:08.497Z,2.25
2022-09-20T14:24:37.147Z,2.22
2022-09-20T14:27:22.152Z,2.28
2022-09-20T14:29:50.562Z,2.55
2022-09-20T14:32:17.339Z,2.55
2022-09-20T14:34:53.563Z,1.80
2022-09-20T14:37:34.227Z,2.13
2022-09-20T14:40:15.928Z,1.90
2022-09-20T14:42:56.568Z,3.33
2022-09-20T14:45:35.972Z,3.25
2022-09-20T14:48:10.460Z,2.40
2022-09-20T14:50:38.162Z,1.80
2022-09-20T14:53:13.723Z,1.90
2022-09-20T14:55:55.205Z,1.88
2022-09-20T14:58:22.113Z,1.70
2022-09-20T15:00:58.686Z,2.00
2022-09-20T15:03:45.929Z,1.85
2022-09-20T15:06:14.729Z,2.03
2022-09-20T15:08:46.321Z,2.00
2022-09-20T15:11:18.386Z,2.10
2022-09-20T15:13:45.575Z,1.77
2022-09-20T15:16:14.811Z,1.88
2022-09-20T15:18:43.162Z,1.80
2022-09-20T15:21:13.620Z,1.80
2022-09-20T15:23:40.996Z,2.33
2022-09-20T15:26:10.851Z,1.88
2022-09-20T15:28:38.063Z,2.13
2022-09-20T15:31:06.179Z,2.47
2022-09-20T15:33:33.431Z,2.05
2022-09-20T15:36:02.559Z,2.00
2022-09-20T15:38:29.524Z,1.70
2022-09-20T15:40:56.345Z,1.90
2022-09-20T15:43:26.750Z,1.67
2022-09-20T15:45:55.988Z,2.00
2022-09-20T15:48:27.713Z,2.53
2022-09-20T15:51:02.490Z,1.80
2022-09-20T15:53:31.959Z,2.15
2022-09-20T15:56:02.622Z,1.80
2022-09-20T15:58:36.273Z,2.70
2022-09-20T16:01:08.047Z,4.82
2022-09-20T16:03:36.176Z,3.33
2022-09-20T16:06:06.121Z,2.28
2022-09-20T16:08:38.122Z,2.00
2022-09-20T16:11:07.041Z,1.70
2022-09-20T16:13:36.332Z,2.20
2022-09-20T16:16:04.726Z,1.88
2022-09-20T16:18:50.746Z,2.22
2022-09-20T16:21:19.354Z,1.85
2022-09-20T16:23:54.603Z,1.77
2022-09-20T16:26:23.834Z,2.10
2022-09-20T16:28:51.312Z,1.98
2022-09-20T16:31:33.051Z,2.25
2022-09-20T16:34:00.405Z,3.58
2022-09-20T16:36:27.715Z,2.60
2022-09-20T16:38:58.585Z,2.10
2022-09-20T16:41:27.059Z,1.60
2022-09-20T16:43:54.511Z,1.98
2022-09-20T16:46:27.260Z,2.30
2022-09-20T16:49:00.889Z,2.75
2022-09-20T16:51:38.736Z,3.08
2022-09-20T16:54:11.694Z,2.30
2022-09-20T16:56:40.950Z,2.70
2022-09-20T16:59:08.193Z,2.50
2022-09-20T17:01:37.065Z,2.40
2022-09-20T17:04:08.484Z,2.17
2022-09-20T17:09:05.122Z,2.05
2022-09-20T17:11:37.129Z,2.28
2022-09-20T17:14:04.991Z,2.58
2022-09-20T17:16:35.192Z,2.20
2022-09-20T17:19:07.425Z,2.83
2022-09-20T17:21:36.423Z,3.17
2022-09-20T17:24:04.582Z,2.80
2022-09-20T17:26:34.291Z,3.17
2022-09-20T17:29:03.338Z,3.58
2022-09-20T17:31:35.454Z,4.57
2022-09-20T17:34:07.231Z,3.58
2022-09-20T17:36:42.006Z,3.00
2022-09-20T17:39:12.168Z,3.00
2022-09-20T17:41:47.476Z,2.85
2022-09-20T17:44:15.276Z,3.08
2022-09-20T17:46:44.323Z,3.08
2022-09-20T17:49:13.132Z,3.28
2022-09-20T17:51:45.548Z,3.38
2022-09-20T17:54:14.078Z,3.45
2022-09-20T17:56:43.809Z,3.38
2022-09-20T17:59:11.914Z,3.75
2022-09-20T18:01:39.955Z,4.30
2022-09-20T18:04:07.855Z,4.80
2022-09-20T18:06:42.383Z,4.00
2022-09-20T18:09:14.182Z,3.55
2022-09-20T18:11:44.224Z,3.90
2022-09-20T18:14:11.562Z,3.42
2022-09-20T18:16:38.891Z,3.63
2022-09-20T18:19:07.203Z,3.30
2022-09-20T18:21:36.179Z,3.40
2022-09-20T18:24:05.961Z,3.45
2022-09-20T18:26:33.731Z,3.22
2022-09-20T18:29:12.519Z,3.33
2022-09-20T18:31:45.224Z,3.35
2022-09-20T18:34:17.931Z,3.58
2022-09-20T18:36:53.274Z,3.70
2022-09-20T18:39:26.544Z,4.50
2022-09-20T18:41:54.077Z,3.92
2022-09-20T18:44:22.363Z,4.30
2022-09-20T18:46:53.558Z,4.38
2022-09-20T18:49:21.846Z,5.10
2022-09-20T18:51:49.568Z,6.43
2022-09-20T18:54:17.369Z,7.25
2022-09-20T18:56:46.169Z,7.45
2022-09-20T18:59:21.160Z,6.20
2022-09-20T19:01:53.714Z,5.07
2022-09-20T19:04:32.587Z,5.43
2022-09-20T19:07:21.007Z,6.13
2022-09-20T19:10:06.266Z,4.97
2022-09-20T19:12:56.946Z,4.15
2022-09-20T19:15:23.927Z,5.05
2022-09-20T19:18:01.004Z,5.57
2022-09-20T19:21:00.625Z,3.58
2022-09-20T19:23:53.712Z,4.45
2022-09-20T19:26:21.766Z,4.82
2022-09-20T19:28:55.263Z,4.97
2022-09-20T19:31:34.009Z,3.10
2022-09-20T19:34:04.819Z,3.53
2022-09-20T19:36:31.613Z,3.67
2022-09-20T19:39:14.369Z,3.47
2022-09-20T19:42:04.014Z,3.10
2022-09-20T19:45:02.108Z,3.03
2022-09-20T19:48:04.820Z,3.03
2022-09-20T19:50:38.721Z,4.10
2022-09-20T19:53:05.934Z,2.50
2022-09-20T19:55:35.139Z,2.65
2022-09-20T19:58:02.575Z,2.50
2022-09-20T20:00:31.043Z,3.00
2022-09-20T20:02:58.405Z,3.10
2022-09-20T20:05:27.516Z,2.85
2022-09-20T20:08:22.383Z,3.03
2022-09-20T20:11:02.585Z,2.55
2022-09-20T20:14:04.247Z,2.72
2022-09-20T20:16:34.990Z,2.80
2022-09-20T20:19:23.561Z,3.10
2022-09-20T20:22:04.345Z,3.00
2022-09-20T20:24:51.831Z,2.50
2022-09-20T20:27:20.055Z,2.63
2022-09-20T20:29:47.245Z,3.20
2022-09-20T20:32:15.138Z,3.17
2022-09-20T20:34:42.381Z,2.90
2022-09-20T20:37:09.710Z,2.25
2022-09-20T20:39:36.570Z,2.80
2022-09-20T20:42:06.154Z,3.40
2022-09-20T20:44:37.800Z,3.00
2022-09-20T20:47:06.632Z,3.30
2022-09-20T20:49:33.764Z,3.20
2022-09-20T20:52:04.876Z,3.15
2022-09-20T20:54:32.648Z,2.85
2022-09-20T20:56:59.713Z,2.25
2022-09-20T20:59:27.086Z,2.75
2022-09-20T21:01:54.213Z,2.40
2022-09-20T21:04:21.839Z,2.25
2022-09-20T21:06:50.464Z,2.25
2022-09-20T21:09:17.402Z,2.83
2022-09-20T21:11:44.558Z,2.70
2022-09-20T21:14:12.642Z,2.30
2022-09-20T21:16:44.271Z,2.60
2022-09-20T21:19:16.540Z,2.08
2022-09-20T21:21:44.945Z,2.03
2022-09-20T21:24:17.269Z,3.78
2022-09-20T21:26:46.191Z,2.00
2022-09-20T21:29:15.682Z,2.33
2022-09-20T21:31:44.929Z,2.55
2022-09-20T21:34:13.340Z,2.90
2022-09-20T21:36:44.657Z,2.30
2022-09-20T21:39:11.922Z,7.43
2022-09-20T21:41:39.815Z,4.13
2022-09-20T21:44:07.832Z,3.20
2022-09-20T21:46:42.178Z,3.20
2022-09-20T21:49:11.720Z,3.50
2022-09-20T21:51:39.581Z,3.08
2022-09-20T21:54:06.780Z,2.80
2022-09-20T21:56:36.013Z,3.45
2022-09-20T21:59:04.502Z,2.80
2022-09-20T22:01:36.862Z,3.00
2022-09-20T22:04:11.717Z,3.22
2022-09-20T22:06:40.939Z,2.67
2022-09-20T22:09:10.744Z,2.75
2022-09-20T22:11:48.609Z,3.60
2022-09-20T22:14:18.569Z,2.63
2022-09-20T22:16:47.004Z,2.22
2022-09-20T22:19:17.089Z,2.53
2022-09-20T22:21:46.701Z,2.17
2022-09-20T22:24:14.928Z,2.30
2022-09-20T22:26:44.115Z,2.20
2022-09-20T22:29:11.538Z,2.22
2022-09-20T22:31:45.029Z,2.22
2022-09-20T22:34:15.676Z,1.92
2022-09-20T22:36:43.092Z,1.88
2022-09-20T22:39:11.670Z,2.30
2022-09-20T22:41:41.075Z,2.13
2022-09-20T22:44:08.322Z,2.30
2022-09-20T22:46:35.794Z,2.55
2022-09-20T22:49:05.720Z,2.05
2022-09-20T22:51:33.505Z,1.73
2022-09-20T22:54:04.686Z,1.90
2022-09-20T22:56:32.433Z,1.90
2022-09-20T22:59:03.232Z,1.67
2022-09-20T23:01:32.032Z,1.80
2022-09-20T23:04:01.986Z,1.80
2022-09-20T23:06:37.698Z,2.08
2022-09-20T23:09:11.116Z,1.67
2022-09-20T23:11:42.979Z,1.75
2022-09-20T23:14:31.667Z,1.90
2022-09-20T23:16:59.505Z,1.70
2022-09-20T23:19:26.508Z,1.70
2022-09-20T23:21:53.326Z,1.80
2022-09-20T23:24:20.168Z,1.70
2022-09-20T23:26:47.135Z,2.13
2022-09-20T23:29:15.781Z,1.80
2022-09-20T23:31:46.359Z,2.08
2022-09-20T23:34:14.649Z,2.38
2022-09-20T23:36:42.126Z,2.05
2022-09-20T23:39:10.310Z,1.88
2022-09-20T23:41:37.699Z,2.28
2022-09-20T23:44:06.572Z,1.70
2022-09-20T23:46:33.842Z,2.05
2022-09-20T23:49:00.880Z,2.33
2022-09-20T23:51:29.090Z,1.98
2022-09-20T23:53:56.287Z,2.03
2022-09-20T23:56:23.754Z,1.90
2022-09-20T23:58:51.063Z,1.80
